Time;durP1;ratioP1;P1;durP2;ratioP2;P2;SDS_P1;SDS_P2;PMS_P1;PMS_P2;Temp;Humidity;BMP_temperature;BMP_pressure;BME280_temperature;BME280_humidity;BME280_pressure;Samples;Min_cycle;Max_cycle;Signal;HPM_P1;HPM_P2
2022/09/13 00:00:14;;;;;;;24.23;19.73;;;18.40;99.90;;;;;;4983838;28;20092;-82
2022/09/13 00:02:40;;;;;;;25.40;19.85;;;18.40;99.90;;;;;;4985018;28;20037;-83
2022/09/13 00:05:06;;;;;;;22.08;19.08;;;18.40;99.90;;;;;;4968187;28;20493;-83
2022/09/13 00:07:32;;;;;;;22.85;18.38;;;18.40;99.90;;;;;;4999314;28;21327;-82
2022/09/13 00:09:58;;;;;;;21.75;18.17;;;18.40;99.90;;;;;;4999588;28;20037;-83
2022/09/13 00:12:23;;;;;;;22.10;17.23;;;18.40;99.90;;;;;;4988892;28;20038;-83
2022/09/13 00:14:50;;;;;;;19.42;16.35;;;18.40;99.90;;;;;;4980665;28;22851;-83
2022/09/13 00:17:15;;;;;;;17.33;14.02;;;18.40;99.90;;;;;;4981988;28;20465;-82
2022/09/13 00:19:41;;;;;;;13.65;12.13;;;18.40;99.90;;;;;;4985317;28;20157;-82
2022/09/13 00:22:07;;;;;;;17.30;12.38;;;18.40;99.90;;;;;;4980857;28;20041;-83
2022/09/13 00:24:32;;;;;;;14.52;11.10;;;18.30;99.90;;;;;;4997795;28;20056;-83
2022/09/13 00:26:59;;;;;;;13.02;10.55;;;18.30;99.90;;;;;;4981695;28;20389;-82
2022/09/13 00:29:26;;;;;;;14.70;9.38;;;18.30;99.90;;;;;;4993811;28;20073;-81
2022/09/13 00:31:52;;;;;;;10.82;8.77;;;18.30;99.90;;;;;;4983219;28;20156;-82
2022/09/13 00:34:18;;;;;;;9.45;8.45;;;18.30;99.90;;;;;;4961531;28;20617;-81
2022/09/13 00:36:44;;;;;;;8.50;7.60;;;18.30;99.90;;;;;;4993383;28;20100;-81
2022/09/13 00:39:11;;;;;;;8.80;7.28;;;18.40;99.90;;;;;;4996083;28;20050;-83
2022/09/13 00:41:37;;;;;;;9.35;7.93;;;18.30;99.90;;;;;;4996592;28;20072;-82
2022/09/13 00:44:03;;;;;;;8.02;7.10;;;18.30;99.90;;;;;;4995327;28;20033;-82
2022/09/13 00:46:43;;;;;;;10.65;6.80;;;18.30;99.90;;;;;;4965899;28;20047;-82
2022/09/13 00:49:19;;;;;;;10.48;7.53;;;18.30;99.90;;;;;;4996333;28;20080;-81
2022/09/13 00:51:52;;;;;;;8.35;7.20;;;18.30;99.90;;;;;;4980177;28;20045;-82
2022/09/13 00:54:20;;;;;;;8.90;7.60;;;18.30;99.90;;;;;;4985035;28;20053;-81
2022/09/13 00:56:50;;;;;;;10.95;9.82;;;18.30;99.90;;;;;;4990052;28;20038;-82
2022/09/13 00:59:24;;;;;;;11.73;10.50;;;18.30;99.90;;;;;;4990190;28;20062;-82
2022/09/13 01:01:53;;;;;;;12.95;11.63;;;18.30;99.90;;;;;;4990060;28;20037;-82
2022/09/13 01:04:22;;;;;;;12.40;9.95;;;18.20;99.90;;;;;;4989923;28;20041;-82
2022/09/13 01:06:49;;;;;;;13.35;11.65;;;18.20;99.90;;;;;;5007383;28;20616;-81
2022/09/13 01:09:15;;;;;;;13.57;11.35;;;18.20;99.90;;;;;;5010167;28;20053;-82
2022/09/13 01:11:49;;;;;;;14.10;12.57;;;18.20;99.90;;;;;;5004066;28;20659;-82
2022/09/13 01:14:19;;;;;;;17.52;13.50;;;18.20;99.90;;;;;;5004488;28;20053;-81
2022/09/13 01:16:45;;;;;;;16.52;12.93;;;18.20;99.90;;;;;;4992618;28;20042;-81
2022/09/13 01:19:11;;;;;;;16.20;11.38;;;18.20;99.90;;;;;;4991254;28;20049;-82
2022/09/13 01:22:08;;;;;;;11.90;10.63;;;18.20;99.90;;;;;;4971542;28;20042;-81
2022/09/13 01:25:04;;;;;;;14.80;12.60;;;18.20;99.90;;;;;;5000316;28;20108;-82
2022/09/13 01:28:09;;;;;;;12.73;10.45;;;18.20;99.90;;;;;;5002880;28;20088;-82
2022/09/13 01:30:39;;;;;;;14.85;13.00;;;18.20;99.90;;;;;;4996979;28;20041;-82
2022/09/13 01:33:26;;;;;;;15.75;11.50;;;18.20;99.90;;;;;;4978410;28;20046;-81
2022/09/13 01:36:10;;;;;;;14.48;11.95;;;18.20;99.90;;;;;;5000097;28;20038;-81
2022/09/13 01:38:44;;;;;;;;;;;18.20;99.90;;;;;;5002084;28;20042;-81
2022/09/13 01:41:25;;;;;;;16.73;13.43;;;18.20;99.90;;;;;;5002088;28;20305;-82
2022/09/13 01:44:11;;;;;;;14.20;11.90;;;18.20;99.90;;;;;;5005374;28;20077;-81
2022/09/13 01:46:43;;;;;;;15.95;12.57;;;18.20;99.90;;;;;;4997420;28;20042;-83
2022/09/13 01:49:20;;;;;;;16.45;13.43;;;18.20;99.90;;;;;;4992563;28;20037;-81
2022/09/13 01:52:27;;;;;;;14.77;12.60;;;18.20;99.90;;;;;;4991097;28;20049;-82
2022/09/13 01:55:02;;;;;;;16.48;13.82;;;18.20;99.90;;;;;;4917208;28;20080;-82
2022/09/13 01:57:34;;;;;;;15.90;13.60;;;18.20;99.90;;;;;;4934303;29;20110;-82
2022/09/13 02:00:09;;;;;;;15.05;11.75;;;18.20;99.90;;;;;;4973400;28;20046;-82
2022/09/13 02:03:06;;;;;;;17.33;11.90;;;18.20;99.90;;;;;;5006509;28;20069;-82
2022/09/13 02:05:43;;;;;;;18.20;14.75;;;18.20;99.90;;;;;;4995015;28;20148;-81
2022/09/13 02:08:16;;;;;;;16.70;12.88;;;18.20;99.90;;;;;;4996248;28;20042;-82
2022/09/13 02:10:50;;;;;;;18.98;13.63;;;18.20;99.90;;;;;;5000817;28;20030;-82
2022/09/13 02:13:30;;;;;;;14.88;11.60;;;18.20;99.90;;;;;;5003527;28;20049;-82
2022/09/13 02:16:07;;;;;;;14.88;11.35;;;18.20;99.90;;;;;;4988959;28;20541;-82
2022/09/13 02:18:38;;;;;;;15.73;12.73;;;18.20;99.90;;;;;;5002978;28;20078;-82
2022/09/13 02:21:22;;;;;;;13.55;11.90;;;18.20;99.90;;;;;;4987627;28;20038;-82
2022/09/13 02:23:52;;;;;;;21.33;15.27;;;18.20;99.90;;;;;;4993532;28;20091;-82
2022/09/13 02:26:21;;;;;;;17.17;12.77;;;18.20;99.90;;;;;;5006681;28;20049;-82
2022/09/13 02:28:52;;;;;;;20.33;13.65;;;18.20;99.90;;;;;;5001731;28;20053;-82
2022/09/13 02:31:43;;;;;;;18.08;14.57;;;18.30;99.90;;;;;;4986813;28;20034;-82
2022/09/13 02:34:20;;;;;;;16.38;13.18;;;18.30;99.90;;;;;;4972212;28;20112;-82
2022/09/13 02:36:49;;;;;;;26.13;17.38;;;18.30;99.90;;;;;;4997213;28;20034;-81
2022/09/13 02:39:18;;;;;;;13.70;10.77;;;18.30;99.90;;;;;;4999653;28;20383;-82
2022/09/13 02:42:05;;;;;;;11.10;9.02;;;18.20;99.90;;;;;;4999975;28;20112;-81
2022/09/13 02:44:39;;;;;;;10.65;7.40;;;18.10;99.90;;;;;;4981978;28;20069;-83
2022/09/13 02:47:29;;;;;;;;;;;18.10;99.90;;;;;;4982335;28;20090;-82
2022/09/13 02:50:05;;;;;;;6.30;3.92;;;18.10;99.90;;;;;;4985723;28;20004;-82
2022/09/13 02:52:30;;;;;;;7.47;4.68;;;18.00;99.90;;;;;;4992599;28;20124;-82
2022/09/13 02:55:17;;;;;;;4.38;2.83;;;18.00;99.90;;;;;;5009207;28;20069;-82
2022/09/13 02:58:04;;;;;;;5.70;2.17;;;18.10;99.90;;;;;;5011493;28;20059;-81
2022/09/13 03:00:30;;;;;;;3.00;1.60;;;18.00;99.90;;;;;;4993713;28;20074;-82
2022/09/13 03:03:01;;;;;;;2.13;1.55;;;18.00;99.90;;;;;;4964264;28;20046;-81
2022/09/13 03:05:26;;;;;;;3.15;1.50;;;18.00;99.90;;;;;;4991359;28;20398;-81
2022/09/13 03:07:53;;;;;;;3.80;1.70;;;18.00;99.90;;;;;;4991174;28;20092;-81
2022/09/13 03:10:22;;;;;;;4.28;1.40;;;18.00;99.90;;;;;;5010305;28;20115;-81
2022/09/13 03:13:15;;;;;;;3.30;1.10;;;17.90;99.90;;;;;;5007990;28;20076;-81
2022/09/13 03:15:46;;;;;;;4.85;1.30;;;17.90;99.90;;;;;;5002148;28;20045;-80
2022/09/13 03:18:29;;;;;;;2.33;1.00;;;17.90;99.90;;;;;;5006148;28;20081;-80
2022/09/13 03:21:25;;;;;;;4.28;1.27;;;17.90;99.90;;;;;;4991378;28;20045;-80
2022/09/13 03:24:26;;;;;;;3.90;1.30;;;17.90;99.90;;;;;;4983965;28;20042;-81
2022/09/13 03:27:25;;;;;;;4.18;1.10;;;17.90;99.90;;;;;;4942356;28;20042;-80
2022/09/13 03:30:12;;;;;;;3.13;1.05;;;17.90;99.90;;;;;;4997559;28;20421;-81
2022/09/13 03:32:56;;;;;;;2.00;0.95;;;17.90;99.90;;;;;;4996718;28;20045;-81
2022/09/13 03:35:29;;;;;;;5.38;1.05;;;17.90;99.90;;;;;;4996232;28;20041;-81
2022/09/13 03:38:00;;;;;;;3.97;1.52;;;17.90;99.90;;;;;;4998732;28;20038;-81
2022/09/13 03:40:36;;;;;;;6.03;1.42;;;17.90;99.90;;;;;;4982302;28;20050;-81
2022/09/13 03:43:06;;;;;;;3.22;1.30;;;17.80;99.90;;;;;;5013478;28;20046;-81
2022/09/13 03:45:37;;;;;;;3.17;1.60;;;17.80;99.90;;;;;;4994238;28;20277;-81
2022/09/13 03:48:04;;;;;;;4.90;1.55;;;17.80;99.90;;;;;;4997123;28;20407;-82
2022/09/13 03:50:30;;;;;;;4.13;1.80;;;17.80;99.90;;;;;;4976358;28;20052;-82
2022/09/13 03:53:10;;;;;;;5.40;1.77;;;17.80;99.90;;;;;;4995037;28;20124;-82
2022/09/13 03:55:41;;;;;;;4.07;2.08;;;17.80;99.90;;;;;;4995235;28;20037;-82
2022/09/13 03:58:18;;;;;;;7.35;2.10;;;17.80;99.90;;;;;;4982613;28;20117;-82
2022/09/13 04:00:45;;;;;;;6.50;1.92;;;17.70;99.90;;;;;;4995820;28;20461;-82
2022/09/13 04:03:11;;;;;;;6.75;1.88;;;17.70;99.90;;;;;;4979260;28;20488;-80
2022/09/13 04:05:37;;;;;;;3.40;1.35;;;17.60;99.90;;;;;;4996385;28;20064;-83
2022/09/13 04:08:04;;;;;;;7.28;1.60;;;17.60;99.90;;;;;;4995208;28;20142;-82
2022/09/13 04:10:31;;;;;;;3.10;1.38;;;17.60;99.90;;;;;;4996783;28;20129;-82
2022/09/13 04:12:59;;;;;;;3.75;1.45;;;17.60;99.90;;;;;;4999729;28;20095;-81
2022/09/13 04:15:25;;;;;;;6.95;1.52;;;17.60;99.90;;;;;;4962266;28;20103;-82
2022/09/13 04:17:51;;;;;;;5.75;1.98;;;17.60;99.90;;;;;;4968710;28;20514;-81
2022/09/13 04:20:18;;;;;;;5.03;1.63;;;17.60;99.90;;;;;;5001466;28;20456;-81
2022/09/13 04:22:49;;;;;;;5.93;1.52;;;17.70;99.90;;;;;;5011067;28;20137;-81
2022/09/13 04:25:15;;;;;;;3.72;1.80;;;17.70;99.90;;;;;;5003246;28;20600;-81
2022/09/13 04:27:40;;;;;;;5.00;1.67;;;17.70;99.90;;;;;;4994888;28;20052;-82
2022/09/13 04:30:06;;;;;;;3.75;1.35;;;17.80;99.90;;;;;;4990724;28;20132;-82
2022/09/13 04:32:32;;;;;;;7.38;1.80;;;17.70;99.90;;;;;;4994895;28;20046;-81
2022/09/13 04:34:58;;;;;;;3.42;1.42;;;17.70;99.90;;;;;;4996729;28;20101;-83
2022/09/13 04:37:24;;;;;;;3.20;1.42;;;17.70;99.90;;;;;;4979965;28;20046;-81
2022/09/13 04:39:49;;;;;;;2.90;1.50;;;17.70;99.90;;;;;;4973302;28;20046;-81
2022/09/13 04:42:15;;;;;;;3.28;1.50;;;17.70;99.90;;;;;;4995695;28;20076;-82
2022/09/13 04:44:41;;;;;;;3.03;1.30;;;17.70;99.90;;;;;;4979214;28;20041;-81
2022/09/13 04:47:07;;;;;;;5.15;1.60;;;17.70;99.90;;;;;;4996318;28;20045;-82
2022/09/13 04:49:33;;;;;;;6.68;1.90;;;17.70;99.90;;;;;;4994014;28;20038;-81
2022/09/13 04:51:59;;;;;;;7.63;2.50;;;17.70;99.90;;;;;;4994951;28;20072;-82
2022/09/13 04:54:25;;;;;;;5.43;2.15;;;17.70;99.90;;;;;;4969382;28;20508;-83
2022/09/13 04:56:50;;;;;;;9.57;2.22;;;17.70;99.90;;;;;;4972342;28;20529;-80
2022/09/13 04:59:16;;;;;;;3.78;1.92;;;17.60;99.90;;;;;;5003927;28;20041;-80
2022/09/13 05:01:42;;;;;;;7.68;2.83;;;17.60;99.90;;;;;;4985067;28;20042;-80
2022/09/13 05:04:09;;;;;;;11.35;2.72;;;17.60;99.90;;;;;;4980883;28;20049;-80
2022/09/13 05:06:35;;;;;;;4.72;1.90;;;17.60;99.90;;;;;;5003959;28;20450;-80
2022/09/13 05:09:01;;;;;;;3.80;2.13;;;17.60;99.90;;;;;;5002964;28;20141;-78
2022/09/13 05:11:28;;;;;;;3.58;2.50;;;17.60;99.90;;;;;;4982456;28;20056;-78
2022/09/13 05:13:56;;;;;;;4.70;2.38;;;17.60;99.90;;;;;;5003480;28;20069;-80
2022/09/13 05:16:24;;;;;;;6.95;2.67;;;17.60;99.90;;;;;;4988811;28;20095;-79
2022/09/13 05:18:50;;;;;;;5.43;2.33;;;17.60;99.90;;;;;;5004046;28;20037;-81
2022/09/13 05:21:17;;;;;;;8.10;2.80;;;17.50;99.90;;;;;;5005094;28;20512;-80
2022/09/13 05:23:43;;;;;;;8.20;3.20;;;17.50;99.90;;;;;;5007686;28;20502;-79
2022/09/13 05:26:09;;;;;;;5.40;2.83;;;17.50;99.90;;;;;;4981350;28;20042;-80
2022/09/13 05:28:36;;;;;;;6.53;2.45;;;17.50;99.90;;;;;;4983550;28;20052;-80
2022/09/13 05:31:17;;;;;;;7.38;2.80;;;17.50;99.90;;;;;;5011531;28;20045;-81
2022/09/13 05:33:44;;;;;;;6.10;2.03;;;17.50;99.90;;;;;;4977854;28;20046;-81
2022/09/13 05:36:09;;;;;;;7.78;2.05;;;17.50;99.90;;;;;;4975535;28;20041;-80
2022/09/13 05:38:35;;;;;;;6.05;2.20;;;17.50;99.90;;;;;;4961781;28;20504;-80
2022/09/13 05:41:03;;;;;;;7.80;2.45;;;17.50;99.90;;;;;;4962286;28;20493;-80
2022/09/13 05:43:32;;;;;;;6.93;2.40;;;17.50;99.90;;;;;;4980986;28;20045;-79
2022/09/13 05:46:04;;;;;;;10.55;2.70;;;17.80;99.90;;;;;;4990668;28;20029;-80
2022/09/13 05:48:30;;;;;;;8.23;2.00;;;17.60;99.90;;;;;;4983082;28;20041;-80
2022/09/13 05:51:02;;;;;;;8.27;1.95;;;17.50;99.90;;;;;;4982055;28;20037;-80
2022/09/13 05:53:28;;;;;;;4.05;1.63;;;17.50;99.90;;;;;;4993521;28;20483;-79
2022/09/13 05:55:54;;;;;;;6.25;1.67;;;17.50;99.90;;;;;;4971635;28;20034;-80
2022/09/13 05:58:27;;;;;;;8.95;1.88;;;17.50;99.90;;;;;;5030793;23;20057;-86
2022/09/13 06:00:54;;;;;;;6.60;1.88;;;17.50;99.90;;;;;;4977403;28;21301;-85
2022/09/13 06:03:21;;;;;;;4.32;1.55;;;17.50;99.90;;;;;;4976263;28;20099;-83
2022/09/13 06:05:46;;;;;;;8.13;1.88;;;17.60;99.90;;;;;;4981414;28;20057;-80
2022/09/13 06:08:12;;;;;;;8.93;1.70;;;17.50;99.90;;;;;;4958806;28;20275;-87
2022/09/13 06:10:38;;;;;;;7.05;1.75;;;17.50;99.90;;;;;;4971903;28;20030;-84
2022/09/13 06:13:03;;;;;;;9.43;1.77;;;17.50;99.90;;;;;;4987780;28;20135;-82
2022/09/13 06:15:29;;;;;;;5.53;1.55;;;17.60;99.90;;;;;;4967616;28;20045;-85
2022/09/13 06:17:57;;;;;;;6.28;1.75;;;17.60;99.90;;;;;;4957379;28;20037;-84
2022/09/13 06:20:23;;;;;;;9.27;2.00;;;17.60;99.90;;;;;;4974501;28;20034;-83
2022/09/13 06:22:52;;;;;;;6.57;1.50;;;17.70;99.90;;;;;;4957985;28;20099;-85
2022/09/13 06:25:17;;;;;;;5.60;1.50;;;17.80;99.90;;;;;;4956563;28;20037;-84
2022/09/13 06:27:43;;;;;;;5.70;1.30;;;17.70;99.90;;;;;;4973386;28;20046;-85
2022/09/13 06:30:11;;;;;;;8.23;2.08;;;17.70;99.90;;;;;;4977978;28;20065;-84
2022/09/13 06:32:37;;;;;;;8.02;1.50;;;17.70;99.90;;;;;;4975142;28;20034;-85
2022/09/13 06:35:03;;;;;;;7.93;2.03;;;17.60;99.90;;;;;;4971177;28;20903;-83
2022/09/13 06:37:29;;;;;;;3.72;1.00;;;17.60;99.90;;;;;;4975384;28;20133;-84
2022/09/13 06:39:55;;;;;;;5.57;1.52;;;17.60;99.90;;;;;;4971636;28;20604;-80
2022/09/13 06:42:21;;;;;;;3.35;1.15;;;17.70;99.90;;;;;;4950429;28;20118;-83
2022/09/13 06:44:47;;;;;;;4.40;1.38;;;17.60;99.90;;;;;;4973500;28;20042;-83
2022/09/13 06:47:13;;;;;;;4.40;1.02;;;17.70;99.90;;;;;;4973576;28;20080;-84
2022/09/13 06:49:38;;;;;;;3.10;1.08;;;17.60;99.90;;;;;;4960191;28;20073;-83
2022/09/13 06:52:04;;;;;;;5.82;1.63;;;17.60;99.90;;;;;;4969318;28;20060;-85
2022/09/13 06:54:30;;;;;;;4.75;1.38;;;17.70;99.90;;;;;;4974059;28;20042;-84
2022/09/13 06:56:56;;;;;;;5.43;1.38;;;17.70;99.90;;;;;;4945939;28;20099;-86
2022/09/13 06:59:22;;;;;;;2.22;0.85;;;17.70;99.90;;;;;;4982715;28;20203;-82
2022/09/13 07:01:47;;;;;;;6.40;1.20;;;17.80;99.90;;;;;;4982642;28;20044;-88
2022/09/13 07:04:16;;;;;;;4.60;1.17;;;17.90;99.90;;;;;;4995019;28;20137;-85
2022/09/13 07:06:44;;;;;;;5.03;1.52;;;18.00;99.90;;;;;;4994874;28;20388;-84
2022/09/13 07:09:13;;;;;;;7.72;2.42;;;18.00;99.90;;;;;;4977873;28;20115;-86
2022/09/13 07:11:40;;;;;;;5.07;1.00;;;18.10;99.90;;;;;;5008912;28;20038;-85
2022/09/13 07:14:06;;;;;;;4.30;0.98;;;18.10;99.90;;;;;;4994624;28;20038;-89
2022/09/13 07:16:35;;;;;;;4.47;0.98;;;18.10;99.90;;;;;;4982114;28;20045;-86
2022/09/13 07:19:06;;;;;;;4.60;1.00;;;18.10;99.90;;;;;;4996626;28;20041;-83
2022/09/13 07:21:33;;;;;;;5.18;1.20;;;18.10;99.90;;;;;;4977485;28;20502;-85
2022/09/13 07:23:59;;;;;;;2.70;1.00;;;18.10;99.90;;;;;;4969898;28;20044;-85
2022/09/13 07:26:33;;;;;;;4.28;1.17;;;18.20;99.90;;;;;;4993860;28;20104;-85
2022/09/13 07:29:01;;;;;;;5.00;1.00;;;18.30;99.90;;;;;;4980499;28;20030;-84
2022/09/13 07:31:30;;;;;;;6.97;1.50;;;18.20;99.90;;;;;;4989799;28;20489;-84
2022/09/13 07:34:02;;;;;;;3.80;0.98;;;18.30;99.90;;;;;;4975740;28;20072;-86
2022/09/13 07:36:30;;;;;;;4.97;1.00;;;18.40;99.90;;;;;;4969733;28;20129;-85
2022/09/13 07:39:54;;;;;;;4.13;0.90;;;18.50;99.90;;;;;;4981864;28;20038;-84
2022/09/13 07:46:01;;;;;;;3.50;0.80;;;18.30;99.90;;;;;;4973406;28;20414;-84
2022/09/13 08:00:00;;;;;;;5.78;1.20;;;18.10;99.90;;;;;;4985201;28;20062;-83
2022/09/13 08:03:19;;;;;;;7.33;1.33;;;18.50;99.90;;;;;;4951390;28;20046;-83
2022/09/13 08:09:47;;;;;;;7.53;1.45;;;18.70;99.90;;;;;;4977366;28;20057;-86
2022/09/13 08:12:56;;;;;;;7.18;1.33;;;18.90;99.90;;;;;;4948184;28;20050;-86
2022/09/13 08:15:25;;;;;;;3.92;0.93;;;18.80;99.90;;;;;;4935000;28;20174;-87
2022/09/13 08:17:52;;;;;;;3.22;0.80;;;19.00;99.90;;;;;;4985822;28;20115;-84
2022/09/13 08:21:01;;;;;;;9.52;1.30;;;19.10;99.90;;;;;;4961579;28;20045;-85
2022/09/13 08:23:27;;;;;;;4.72;0.80;;;19.00;99.90;;;;;;4975647;28;20536;-90
2022/09/13 08:28:24;;;;;;;4.43;0.93;;;19.10;99.90;;;;;;4981850;28;20100;-86
2022/09/13 08:38:15;;;;;;;6.95;1.92;;;19.10;99.90;;;;;;4975301;23;20049;-64
2022/09/13 08:40:44;;;;;;;6.18;1.70;;;19.20;99.90;;;;;;5004502;28;20050;-64
2022/09/13 08:43:19;;;;;;;6.32;1.15;;;19.30;99.90;;;;;;4980433;28;20053;-64
2022/09/13 08:46:24;;;;;;;6.13;1.23;;;19.30;99.90;;;;;;4970293;28;20046;-64
2022/09/13 08:48:53;;;;;;;10.13;1.27;;;19.30;99.90;;;;;;4975743;28;20534;-64
2022/09/13 08:51:32;;;;;;;5.47;1.10;;;19.30;99.90;;;;;;4976471;28;20582;-64
2022/09/13 08:53:58;;;;;;;6.53;1.42;;;19.40;99.90;;;;;;4972116;28;20044;-64
2022/09/13 08:56:37;;;;;;;4.78;1.05;;;19.50;99.90;;;;;;5007273;28;20068;-64
2022/09/13 08:59:27;;;;;;;4.43;1.13;;;19.40;99.90;;;;;;5000016;28;20039;-64
2022/09/13 09:02:02;;;;;;;6.80;1.70;;;19.60;99.80;;;;;;4994087;28;20525;-64
2022/09/13 09:04:45;;;;;;;6.93;2.40;;;19.60;99.90;;;;;;4984030;28;20040;-64
2022/09/13 09:07:16;;;;;;;5.72;1.10;;;19.70;99.90;;;;;;5005762;28;20041;-64
2022/09/13 09:09:56;;;;;;;5.07;1.08;;;19.90;99.70;;;;;;5003629;28;20045;-64
2022/09/13 09:12:35;;;;;;;4.28;1.02;;;19.90;99.50;;;;;;5000018;28;20042;-64
2022/09/13 09:15:10;;;;;;;6.90;1.30;;;19.90;99.50;;;;;;4997961;28;20486;-64
2022/09/13 09:17:54;;;;;;;5.55;1.50;;;19.90;99.50;;;;;;4993196;28;20528;-64
2022/09/13 09:20:39;;;;;;;5.55;1.35;;;19.90;98.80;;;;;;4988321;28;20489;-64
2022/09/13 09:23:16;;;;;;;7.07;2.10;;;19.90;99.20;;;;;;4998965;28;20590;-63
2022/09/13 09:25:41;;;;;;;5.90;1.20;;;20.00;99.20;;;;;;5000813;28;20037;-64
2022/09/13 09:28:16;;;;;;;5.20;1.23;;;20.20;99.50;;;;;;5003362;28;20440;-64
2022/09/13 09:30:53;;;;;;;5.45;1.15;;;20.10;98.80;;;;;;4996025;28;20104;-63
2022/09/13 09:33:31;;;;;;;6.15;1.20;;;19.90;98.30;;;;;;5005922;28;20064;-64
2022/09/13 09:36:06;;;;;;;4.43;1.13;;;19.90;99.00;;;;;;4994667;28;20081;-64
2022/09/13 09:38:36;;;;;;;6.57;1.23;;;19.70;99.10;;;;;;4995080;28;20225;-63
2022/09/13 09:41:30;;;;;;;4.35;1.15;;;19.80;99.30;;;;;;5005814;28;20042;-63
2022/09/13 09:44:08;;;;;;;7.93;1.40;;;19.80;99.30;;;;;;4994911;28;20405;-63
2022/09/13 09:46:38;;;;;;;8.30;1.55;;;19.70;99.60;;;;;;5006615;28;20140;-63
2022/09/13 09:50:07;;;;;;;4.78;1.52;;;19.70;99.50;;;;;;5004061;28;20034;-63
2022/09/13 09:52:05;;;;;;;4.55;1.10;;;19.60;98.70;;;;;;4970157;28;20788;-63
2022/09/13 09:54:33;;;;;;;5.18;1.17;;;19.70;99.10;;;;;;4977841;28;20116;-63
2022/09/13 09:57:00;;;;;;;5.32;1.02;;;19.90;99.50;;;;;;4967406;28;20065;-63
2022/09/13 09:59:32;;;;;;;4.45;0.88;;;20.20;99.30;;;;;;4970463;28;20863;-63
2022/09/13 10:02:00;;;;;;;5.40;1.10;;;20.30;98.60;;;;;;4969310;28;20096;-63
2022/09/13 10:04:28;;;;;;;4.05;1.02;;;20.20;97.70;;;;;;4971358;28;20644;-63
2022/09/13 10:07:23;;;;;;;4.88;1.27;;;20.10;97.80;;;;;;4971772;28;20180;-63
2022/09/13 10:10:32;;;;;;;4.57;1.02;;;20.20;97.60;;;;;;4956554;28;20050;-63
2022/09/13 10:12:59;;;;;;;4.60;1.45;;;20.10;97.60;;;;;;4969084;28;20060;-63
2022/09/13 10:15:33;;;;;;;4.93;1.27;;;19.90;96.50;;;;;;4985573;28;20046;-63
2022/09/13 10:18:17;;;;;;;3.60;0.90;;;20.10;97.30;;;;;;4974276;28;20042;-63
2022/09/13 10:21:02;;;;;;;4.43;1.00;;;20.10;96.10;;;;;;4968777;28;20128;-64
2022/09/13 10:23:33;;;;;;;5.28;1.38;;;20.20;96.60;;;;;;4972361;28;20057;-63
2022/09/13 10:26:09;;;;;;;3.63;1.05;;;20.40;96.60;;;;;;4982190;28;20924;-63
2022/09/13 10:28:41;;;;;;;4.68;1.00;;;20.40;95.40;;;;;;4972942;28;20041;-63
2022/09/13 10:31:13;;;;;;;6.20;1.00;;;20.50;96.30;;;;;;4972369;28;20476;-63
2022/09/13 10:33:43;;;;;;;4.95;1.25;;;20.80;96.10;;;;;;4970591;28;20046;-64
2022/09/13 10:36:43;;;;;;;5.93;1.40;;;21.10;96.60;;;;;;4974374;28;20136;-63
2022/09/13 10:39:17;;;;;;;5.43;1.08;;;21.40;96.30;;;;;;4965777;28;20309;-63
2022/09/13 10:41:49;;;;;;;6.07;1.30;;;21.00;95.50;;;;;;4980184;28;20049;-63
2022/09/13 10:44:24;;;;;;;4.78;1.17;;;20.40;96.30;;;;;;4974595;28;20038;-64
2022/09/13 10:46:51;;;;;;;4.45;1.17;;;20.40;97.20;;;;;;4973402;28;20577;-63
2022/09/13 10:49:54;;;;;;;3.67;0.82;;;20.60;97.90;;;;;;4973825;28;20181;-64
2022/09/13 10:53:10;;;;;;;7.85;1.48;;;21.00;96.40;;;;;;4934334;28;20051;-63
2022/09/13 10:55:42;;;;;;;4.20;1.08;;;21.20;95.20;;;;;;4995112;28;20476;-64
2022/09/13 10:58:08;;;;;;;10.57;1.63;;;21.10;95.00;;;;;;4990954;28;20203;-64
2022/09/13 11:00:56;;;;;;;5.70;1.20;;;21.00;95.30;;;;;;5005118;28;20136;-63
2022/09/13 11:03:25;;;;;;;3.92;1.10;;;21.10;95.20;;;;;;5000410;28;20074;-63
2022/09/13 11:06:13;;;;;;;4.45;1.00;;;21.40;94.90;;;;;;5011095;28;20033;-64
2022/09/13 11:09:07;;;;;;;5.65;1.38;;;21.40;94.10;;;;;;5005739;28;20120;-64
2022/09/13 11:11:56;;;;;;;6.65;1.67;;;21.30;93.90;;;;;;5003485;28;20148;-63
2022/09/13 11:14:33;;;;;;;6.97;1.40;;;20.90;94.00;;;;;;5002460;28;20076;-64
2022/09/13 11:17:22;;;;;;;5.78;1.33;;;20.70;94.20;;;;;;5006601;28;20029;-64
2022/09/13 11:20:17;;;;;;;5.68;1.25;;;21.10;94.90;;;;;;4976700;28;20092;-65
2022/09/13 11:22:42;;;;;;;8.80;1.75;;;21.50;94.60;;;;;;4942320;28;20073;-65
2022/09/13 11:25:33;;;;;;;8.15;1.52;;;21.40;94.40;;;;;;4986448;28;20126;-65
2022/09/13 11:28:32;;;;;;;8.77;1.50;;;21.20;95.60;;;;;;5000915;28;20093;-65
2022/09/13 11:31:20;;;;;;;6.45;1.73;;;20.70;95.70;;;;;;4993166;28;20140;-65
2022/09/13 11:34:07;;;;;;;7.50;2.00;;;20.50;96.00;;;;;;4994320;28;20046;-65
2022/09/13 11:36:42;;;;;;;6.47;1.23;;;20.50;96.40;;;;;;4990455;28;20477;-64
2022/09/13 11:39:25;;;;;;;7.60;1.45;;;20.80;96.40;;;;;;4996991;28;20046;-65
2022/09/13 11:42:32;;;;;;;7.22;1.27;;;21.20;96.10;;;;;;4991838;28;20341;-65
2022/09/13 11:45:30;;;;;;;7.68;1.35;;;21.40;95.40;;;;;;4990688;28;20061;-63
2022/09/13 11:48:12;;;;;;;7.47;1.60;;;21.40;94.10;;;;;;4987362;28;20046;-64
2022/09/13 11:50:56;;;;;;;9.25;1.40;;;21.60;95.00;;;;;;5001180;28;20049;-64
2022/09/13 11:53:50;;;;;;;6.53;1.40;;;21.80;94.70;;;;;;4997525;28;20048;-64
2022/09/13 11:59:39;;;;;;;6.32;1.70;;;21.10;94.00;;;;;;4987220;28;20090;-87
2022/09/13 12:02:23;;;;;;;4.35;1.45;;;21.10;94.60;;;;;;4961624;28;20052;-85
2022/09/13 12:04:55;;;;;;;;;;;21.10;94.60;;;;;;4973360;28;20463;-84
2022/09/13 12:07:58;;;;;;;6.90;1.77;;;21.40;94.40;;;;;;4982691;28;19972;-85
2022/09/13 12:10:37;;;;;;;5.78;1.30;;;21.50;94.60;;;;;;4966557;28;20136;-87
2022/09/13 12:13:06;;;;;;;7.15;1.60;;;21.30;94.50;;;;;;4977333;28;20080;-87
2022/09/13 12:15:41;;;;;;;8.80;1.60;;;21.40;94.80;;;;;;4963930;28;20444;-87
2022/09/13 12:18:22;;;;;;;9.68;1.20;;;21.60;94.50;;;;;;4994510;28;20159;-87
2022/09/13 12:20:56;;;;;;;6.68;1.20;;;21.70;94.40;;;;;;4993826;28;20053;-86
2022/09/13 12:23:30;;;;;;;7.18;1.42;;;21.60;94.00;;;;;;5024933;28;20037;-84
2022/09/13 12:25:56;;;;;;;6.20;1.27;;;21.50;92.80;;;;;;5001950;28;20144;-88
2022/09/13 12:28:45;;;;;;;8.57;1.35;;;21.50;93.50;;;;;;5007672;28;20080;-86
2022/09/13 12:31:18;;;;;;;10.52;1.40;;;21.50;92.90;;;;;;5002081;28;20041;-83
2022/09/13 12:33:46;;;;;;;6.97;1.40;;;21.20;93.10;;;;;;4995643;28;20044;-83
2022/09/13 12:36:27;;;;;;;4.00;1.15;;;21.10;92.70;;;;;;4995872;28;20041;-83
2022/09/13 12:39:11;;;;;;;6.65;1.10;;;21.20;92.60;;;;;;5002793;28;20076;-85
2022/09/13 12:42:23;;;;;;;9.07;1.90;;;21.20;93.10;;;;;;5014781;28;20072;-86
2022/09/13 12:45:05;;;;;;;7.57;1.52;;;20.80;92.60;;;;;;5013771;28;20034;-84
2022/09/13 12:47:53;;;;;;;8.57;1.60;;;21.00;94.00;;;;;;4976049;28;20501;-86
2022/09/13 12:50:32;;;;;;;8.43;2.00;;;21.20;94.30;;;;;;4976411;28;20049;-83
2022/09/13 12:53:05;;;;;;;6.40;1.35;;;21.20;94.10;;;;;;4984192;28;20091;-87
2022/09/13 12:55:34;;;;;;;7.88;1.80;;;21.00;93.90;;;;;;5005333;28;20061;-87
2022/09/13 12:58:31;;;;;;;9.27;1.60;;;20.90;93.80;;;;;;5022807;28;20041;-87
2022/09/13 13:00:56;;;;;;;6.68;1.45;;;21.10;94.50;;;;;;4986874;28;20152;-87
2022/09/13 13:03:29;;;;;;;7.18;1.42;;;21.20;93.90;;;;;;5009939;28;20128;-83
2022/09/13 13:06:19;;;;;;;6.97;1.75;;;21.60;94.00;;;;;;5010493;28;20091;-81
2022/09/13 13:08:51;;;;;;;5.03;1.40;;;21.40;93.50;;;;;;5013369;28;20048;-84
2022/09/13 13:11:22;;;;;;;7.15;1.50;;;21.30;93.20;;;;;;4993412;28;20593;-84
2022/09/13 13:14:02;;;;;;;8.73;1.60;;;21.40;93.40;;;;;;5008459;28;20029;-83
2022/09/13 13:16:33;;;;;;;4.30;1.35;;;21.30;93.40;;;;;;5011246;28;20037;-84
2022/09/13 13:19:02;;;;;;;9.70;1.65;;;21.10;93.40;;;;;;5007183;28;20091;-81
2022/09/13 13:21:38;;;;;;;10.10;1.98;;;21.00;93.70;;;;;;5006928;28;20045;-81
2022/09/13 13:24:17;;;;;;;5.32;1.70;;;20.80;93.60;;;;;;4997054;28;20371;-86
2022/09/13 13:26:50;;;;;;;6.88;1.42;;;20.90;93.50;;;;;;4976343;28;20041;-82
2022/09/13 13:29:29;;;;;;;11.18;2.67;;;21.00;93.50;;;;;;4998629;28;20192;-83
2022/09/13 13:32:09;;;;;;;9.30;1.58;;;21.40;93.70;;;;;;4989813;28;20121;-83
2022/09/13 13:34:41;;;;;;;9.20;1.58;;;21.50;92.90;;;;;;5020439;28;20057;-84
2022/09/13 13:37:09;;;;;;;8.30;1.40;;;21.40;92.10;;;;;;4990336;28;20160;-84
2022/09/13 13:39:44;;;;;;;11.27;2.03;;;21.60;92.40;;;;;;5008915;28;20033;-84
2022/09/13 13:42:12;;;;;;;5.63;1.70;;;21.80;92.80;;;;;;5004512;28;20066;-86
2022/09/13 13:44:37;;;;;;;3.97;1.50;;;21.90;92.50;;;;;;4989115;28;20050;-86
2022/09/13 13:47:06;;;;;;;7.40;1.40;;;21.90;91.90;;;;;;4992620;28;20045;-86
2022/09/13 13:49:35;;;;;;;6.65;1.58;;;21.80;92.10;;;;;;4990935;28;20058;-85
2022/09/13 13:52:09;;;;;;;5.82;1.55;;;21.80;90.70;;;;;;5004836;28;20044;-85